createdAt,value
2019-03-30T00:00:40.679Z,10.10
2019-03-30T00:03:13.179Z,10.00
2019-03-30T00:05:45.852Z,10.00
2019-03-30T00:08:17.740Z,10.00
2019-03-30T00:10:49.632Z,9.90
2019-03-30T00:13:21.709Z,9.90
2019-03-30T00:15:53.727Z,9.90
2019-03-30T00:18:26.676Z,9.90
2019-03-30T00:20:58.514Z,10.00
2019-03-30T00:23:31.721Z,9.90
2019-03-30T00:26:04.026Z,9.90
2019-03-30T00:28:36.183Z,10.00
2019-03-30T00:31:08.250Z,9.90
2019-03-30T00:33:40.223Z,9.90
2019-03-30T00:36:12.065Z,9.80
2019-03-30T00:38:44.007Z,9.80
2019-03-30T00:41:15.909Z,9.80
2019-03-30T00:43:47.762Z,9.80
2019-03-30T00:46:20.442Z,9.70
2019-03-30T00:48:53.282Z,9.70
2019-03-30T00:51:26.161Z,9.80
2019-03-30T00:53:58.069Z,9.70
2019-03-30T00:56:29.939Z,9.70
2019-03-30T00:59:03.574Z,9.70
2019-03-30T01:01:35.555Z,9.70
2019-03-30T01:04:07.430Z,9.70
2019-03-30T01:06:41.892Z,9.60
2019-03-30T01:09:13.858Z,9.60
2019-03-30T01:11:45.823Z,9.60
2019-03-30T01:14:17.652Z,9.60
2019-03-30T01:16:50.568Z,9.50
2019-03-30T01:19:22.899Z,9.50
2019-03-30T01:21:56.326Z,9.50
2019-03-30T01:24:28.429Z,9.40
2019-03-30T01:27:00.705Z,9.50
2019-03-30T01:29:32.740Z,9.50
2019-03-30T01:32:05.496Z,9.50
2019-03-30T01:34:38.402Z,9.50
2019-03-30T01:37:10.411Z,9.50
2019-03-30T01:39:42.371Z,9.40
2019-03-30T01:42:14.312Z,9.40
2019-03-30T01:44:46.298Z,9.40
2019-03-30T01:47:18.125Z,9.40
2019-03-30T01:49:50.070Z,9.30
2019-03-30T01:52:21.949Z,9.30
2019-03-30T01:54:53.774Z,9.30
2019-03-30T01:57:25.608Z,9.30
2019-03-30T01:59:57.508Z,9.20
2019-03-30T02:02:29.341Z,9.30
2019-03-30T02:05:01.638Z,9.20
2019-03-30T02:07:33.582Z,9.10
2019-03-30T02:10:06.074Z,9.20
2019-03-30T02:12:37.948Z,9.20
2019-03-30T02:15:10.337Z,9.10
2019-03-30T02:17:42.480Z,9.00
2019-03-30T02:20:30.913Z,9.00
2019-03-30T02:23:00.185Z,9.00
2019-03-30T02:25:31.964Z,8.90
2019-03-30T02:28:06.722Z,9.00
2019-03-30T02:30:37.413Z,9.00
2019-03-30T02:33:10.219Z,8.90
2019-03-30T02:35:42.344Z,8.90
2019-03-30T02:38:14.573Z,8.90
2019-03-30T02:40:46.598Z,8.90
2019-03-30T02:43:18.458Z,8.90
2019-03-30T02:45:50.362Z,8.90
2019-03-30T02:48:22.231Z,8.90
2019-03-30T02:50:54.728Z,8.80
2019-03-30T02:53:26.776Z,8.70
2019-03-30T02:55:59.325Z,8.80
2019-03-30T02:58:31.586Z,8.60
2019-03-30T03:01:03.499Z,8.60
2019-03-30T03:03:35.458Z,8.60
2019-03-30T03:06:08.302Z,8.60
2019-03-30T03:08:40.196Z,8.50
2019-03-30T03:11:12.136Z,8.50
2019-03-30T03:13:44.101Z,8.50
2019-03-30T03:16:15.940Z,8.40
2019-03-30T03:18:47.773Z,8.40
2019-03-30T03:21:19.730Z,8.30
2019-03-30T03:23:51.914Z,8.40
2019-03-30T03:26:23.775Z,8.40
2019-03-30T03:28:56.449Z,8.30
2019-03-30T03:31:28.275Z,8.30
2019-03-30T03:34:00.101Z,8.30
2019-03-30T03:36:32.302Z,8.10
2019-03-30T03:39:05.128Z,8.10
2019-03-30T03:41:37.621Z,8.10
2019-03-30T03:44:09.460Z,8.00
2019-03-30T03:46:41.348Z,8.10
2019-03-30T03:49:13.248Z,8.10
2019-03-30T03:51:45.643Z,8.10
2019-03-30T03:54:18.677Z,8.00
2019-03-30T03:56:51.295Z,7.80
2019-03-30T03:59:26.483Z,7.80
2019-03-30T04:02:00.298Z,7.60
2019-03-30T04:04:33.755Z,7.50
2019-03-30T04:07:06.219Z,7.60
2019-03-30T04:09:41.038Z,7.50
2019-03-30T04:12:16.006Z,7.40
2019-03-30T04:14:52.396Z,7.40
2019-03-30T04:17:24.165Z,7.50
2019-03-30T04:19:56.780Z,7.40
2019-03-30T04:22:29.222Z,7.50
2019-03-30T04:25:01.196Z,7.40
2019-03-30T04:27:33.135Z,7.50
2019-03-30T04:30:05.370Z,7.40
2019-03-30T04:32:37.171Z,7.40
2019-03-30T04:35:09.070Z,7.40
2019-03-30T04:37:41.458Z,7.50
2019-03-30T04:40:13.390Z,7.60
2019-03-30T04:42:45.385Z,7.60
2019-03-30T04:45:17.249Z,7.60
2019-03-30T04:47:50.228Z,7.70
2019-03-30T04:50:22.068Z,7.80
2019-03-30T04:52:53.885Z,7.80
2019-03-30T04:55:25.775Z,7.80
2019-03-30T04:57:58.067Z,7.80
2019-03-30T05:00:29.962Z,7.80
2019-03-30T05:03:01.964Z,7.90
2019-03-30T05:05:34.026Z,8.00
2019-03-30T05:08:05.966Z,8.20
2019-03-30T05:10:37.845Z,8.40
2019-03-30T05:13:09.915Z,9.40
2019-03-30T05:15:41.766Z,10.20
2019-03-30T05:18:13.843Z,10.80
2019-03-30T05:20:45.689Z,11.20
2019-03-30T05:23:17.643Z,12.40
2019-03-30T05:25:49.586Z,13.10
2019-03-30T05:28:21.609Z,13.90
2019-03-30T05:30:53.799Z,14.90
2019-03-30T05:33:25.642Z,14.60
2019-03-30T05:35:57.552Z,15.30
2019-03-30T05:38:30.293Z,14.70
2019-03-30T05:41:02.362Z,14.80
2019-03-30T05:43:34.162Z,14.20
2019-03-30T05:46:06.026Z,13.70
2019-03-30T05:48:37.911Z,12.40
2019-03-30T05:51:09.766Z,11.80
2019-03-30T05:53:42.845Z,11.80
2019-03-30T05:56:15.157Z,11.90
2019-03-30T05:58:47.184Z,11.70
2019-03-30T06:01:19.073Z,11.20
2019-03-30T06:03:51.061Z,11.00
2019-03-30T06:06:22.965Z,10.90
2019-03-30T06:08:54.997Z,10.70
2019-03-30T06:11:26.894Z,10.60
2019-03-30T06:13:58.765Z,10.70
2019-03-30T06:16:30.568Z,10.60
2019-03-30T06:19:02.527Z,10.70
2019-03-30T06:21:34.522Z,10.60
2019-03-30T06:24:06.624Z,10.70
2019-03-30T06:26:38.527Z,10.50
2019-03-30T06:29:10.650Z,10.80
2019-03-30T06:31:46.539Z,10.80
2019-03-30T06:34:17.209Z,10.80
2019-03-30T06:36:49.505Z,10.80
2019-03-30T06:39:25.983Z,10.90
2019-03-30T06:41:57.841Z,11.00
2019-03-30T06:44:29.693Z,11.10
2019-03-30T06:47:01.501Z,11.10
2019-03-30T06:49:33.389Z,11.10
2019-03-30T06:52:05.472Z,11.10
2019-03-30T06:54:37.818Z,11.30
2019-03-30T06:57:09.805Z,11.30
2019-03-30T06:59:41.673Z,11.20
2019-03-30T07:02:14.138Z,11.50
2019-03-30T07:04:46.542Z,11.30
2019-03-30T07:07:19.030Z,11.60
2019-03-30T07:09:53.034Z,11.70
2019-03-30T07:12:25.782Z,11.60
2019-03-30T07:15:00.957Z,11.70
2019-03-30T07:17:34.995Z,11.60
2019-03-30T07:20:11.883Z,11.70
2019-03-30T07:22:43.936Z,11.90
2019-03-30T07:25:15.785Z,11.80
2019-03-30T07:27:47.659Z,12.00
2019-03-30T07:30:19.914Z,12.10
2019-03-30T07:32:52.311Z,12.10
2019-03-30T07:35:24.275Z,11.90
2019-03-30T07:37:56.084Z,11.90
2019-03-30T07:40:28.470Z,11.90
2019-03-30T07:43:00.940Z,12.10
2019-03-30T07:45:33.736Z,12.00
2019-03-30T07:48:05.716Z,11.90
2019-03-30T07:50:38.801Z,12.00
2019-03-30T07:53:25.258Z,12.20
2019-03-30T07:55:44.807Z,12.00
2019-03-30T07:58:16.616Z,12.10
2019-03-30T08:00:48.505Z,12.10
2019-03-30T08:03:20.531Z,12.30
2019-03-30T08:05:54.522Z,12.40
2019-03-30T08:08:27.891Z,12.50
2019-03-30T08:10:59.898Z,12.60
2019-03-30T08:13:31.848Z,12.60
2019-03-30T08:16:04.359Z,12.60
2019-03-30T08:18:36.805Z,12.60
2019-03-30T08:21:08.676Z,12.40
2019-03-30T08:23:40.933Z,12.50
2019-03-30T08:26:13.096Z,12.50
2019-03-30T08:28:45.137Z,12.60
2019-03-30T08:31:17.016Z,12.70
2019-03-30T08:33:49.824Z,12.90
2019-03-30T08:36:21.913Z,13.00
2019-03-30T08:38:54.382Z,13.10
2019-03-30T08:41:26.639Z,13.00
2019-03-30T08:43:58.660Z,13.00
2019-03-30T08:46:30.846Z,13.00
2019-03-30T08:49:03.207Z,13.10
2019-03-30T08:51:35.112Z,13.20
2019-03-30T08:54:07.446Z,13.30
2019-03-30T08:56:39.816Z,13.30
2019-03-30T08:59:12.288Z,13.40
2019-03-30T09:01:44.251Z,13.40
2019-03-30T09:04:16.146Z,13.40
2019-03-30T09:06:47.994Z,13.50
2019-03-30T09:09:20.120Z,13.60
2019-03-30T09:11:53.147Z,13.50
2019-03-30T09:14:25.062Z,13.50
2019-03-30T09:16:57.066Z,13.60
2019-03-30T09:19:29.062Z,13.70
2019-03-30T09:22:01.059Z,13.80
2019-03-30T09:24:32.909Z,13.70
2019-03-30T09:27:04.824Z,13.80
2019-03-30T09:29:36.759Z,13.80
2019-03-30T09:32:14.723Z,13.70
2019-03-30T09:34:42.337Z,13.80
2019-03-30T09:37:14.334Z,14.00
2019-03-30T09:39:47.695Z,14.10
2019-03-30T09:42:19.817Z,14.20
2019-03-30T09:44:51.839Z,14.20
2019-03-30T09:47:23.655Z,14.20
2019-03-30T09:49:55.500Z,14.30
2019-03-30T09:52:27.433Z,14.10
2019-03-30T09:54:59.393Z,14.20
2019-03-30T09:57:31.346Z,14.30
2019-03-30T10:00:03.513Z,14.40
2019-03-30T10:02:36.583Z,14.40
2019-03-30T10:05:09.942Z,14.40
2019-03-30T10:07:41.948Z,14.50
2019-03-30T10:10:14.714Z,14.50
2019-03-30T10:12:47.254Z,14.60
2019-03-30T10:15:19.407Z,14.60
2019-03-30T10:17:51.374Z,14.70
2019-03-30T10:20:23.186Z,14.70
2019-03-30T10:22:55.434Z,14.80
2019-03-30T10:25:27.883Z,14.90
2019-03-30T10:28:00.172Z,14.90
2019-03-30T10:30:32.725Z,15.00
2019-03-30T10:33:04.630Z,15.00
2019-03-30T10:35:36.482Z,15.10
2019-03-30T10:38:08.300Z,15.10
2019-03-30T10:40:40.764Z,15.20
2019-03-30T10:43:13.107Z,15.30
2019-03-30T10:45:45.506Z,15.40
2019-03-30T10:48:17.401Z,15.30
2019-03-30T10:50:50.521Z,15.40
2019-03-30T10:53:22.586Z,15.40
2019-03-30T10:55:55.004Z,15.40
2019-03-30T10:58:27.073Z,15.40
2019-03-30T11:00:58.980Z,15.60
2019-03-30T11:03:30.996Z,15.60
2019-03-30T11:06:03.486Z,15.60
2019-03-30T11:08:35.419Z,15.70
2019-03-30T11:11:07.327Z,15.80
2019-03-30T11:13:39.228Z,15.70
2019-03-30T11:16:11.115Z,15.70
2019-03-30T11:18:43.245Z,15.70
2019-03-30T11:21:15.126Z,15.80
2019-03-30T11:23:47.111Z,16.00
2019-03-30T11:26:18.896Z,16.10
2019-03-30T11:28:50.910Z,16.10
2019-03-30T11:31:22.787Z,16.20
2019-03-30T11:33:54.651Z,16.20
2019-03-30T11:36:27.565Z,16.20
2019-03-30T11:39:00.049Z,16.30
2019-03-30T11:41:32.206Z,16.50
2019-03-30T11:44:04.097Z,16.50
2019-03-30T11:46:36.103Z,16.40
2019-03-30T11:49:07.887Z,16.30
2019-03-30T11:51:40.123Z,16.30
2019-03-30T11:54:12.406Z,16.20
2019-03-30T11:56:44.352Z,16.30
2019-03-30T11:59:16.374Z,16.30
2019-03-30T12:01:48.455Z,16.30
2019-03-30T12:04:20.890Z,16.40
2019-03-30T12:06:52.918Z,16.40
2019-03-30T12:09:25.134Z,16.40
2019-03-30T12:11:57.086Z,16.40
2019-03-30T12:14:30.082Z,16.40
2019-03-30T12:17:01.951Z,16.60
2019-03-30T12:19:34.664Z,16.60
2019-03-30T12:22:06.678Z,16.80
2019-03-30T12:24:38.525Z,16.90
2019-03-30T12:27:10.359Z,17.00
2019-03-30T12:29:44.535Z,16.90
2019-03-30T12:32:16.058Z,17.00
2019-03-30T12:34:48.329Z,17.10
2019-03-30T12:37:20.311Z,17.10
2019-03-30T12:39:52.262Z,17.20
2019-03-30T12:42:25.535Z,17.20
2019-03-30T12:44:57.526Z,16.90
2019-03-30T12:47:30.169Z,17.00
2019-03-30T12:50:02.555Z,17.00
2019-03-30T12:52:35.449Z,17.10
2019-03-30T12:55:07.501Z,17.20
2019-03-30T12:57:40.252Z,17.30
2019-03-30T13:00:12.333Z,17.20
2019-03-30T13:02:44.271Z,17.30
2019-03-30T13:05:16.182Z,17.30
2019-03-30T13:07:48.336Z,17.30
2019-03-30T13:10:20.548Z,17.30
2019-03-30T13:12:52.477Z,17.30
2019-03-30T13:15:25.146Z,17.30
2019-03-30T13:17:57.583Z,17.30
2019-03-30T13:20:29.629Z,17.30
2019-03-30T13:23:01.715Z,17.30
2019-03-30T13:25:33.599Z,17.40
2019-03-30T13:28:06.029Z,17.50
2019-03-30T13:30:38.575Z,17.40
2019-03-30T13:33:10.462Z,17.50
2019-03-30T13:35:42.448Z,17.50
2019-03-30T13:38:14.481Z,17.40
2019-03-30T13:40:46.290Z,17.30
2019-03-30T13:43:18.472Z,17.40
2019-03-30T13:45:51.789Z,17.40
2019-03-30T13:48:23.983Z,17.40
2019-03-30T13:50:56.066Z,17.50
2019-03-30T13:53:28.448Z,17.60
2019-03-30T13:56:00.436Z,17.50
2019-03-30T13:58:36.405Z,17.50
2019-03-30T14:01:07.816Z,17.50
2019-03-30T14:03:40.849Z,17.50
2019-03-30T14:06:14.343Z,17.60
2019-03-30T14:08:46.431Z,17.50
2019-03-30T14:11:18.363Z,17.50
2019-03-30T14:13:50.276Z,17.50
2019-03-30T14:16:22.772Z,17.50
2019-03-30T14:18:54.960Z,17.60
2019-03-30T14:21:26.825Z,16.50
2019-03-30T14:23:58.811Z,15.50
2019-03-30T14:26:31.864Z,14.50
2019-03-30T14:29:03.861Z,13.70
2019-03-30T14:31:35.961Z,13.40
2019-03-30T14:34:08.103Z,12.90
2019-03-30T14:36:40.821Z,12.50
2019-03-30T14:39:13.968Z,12.80
2019-03-30T14:41:46.031Z,13.10
2019-03-30T14:44:18.009Z,13.20
2019-03-30T14:46:50.003Z,13.40
2019-03-30T14:49:21.958Z,13.30
2019-03-30T14:51:53.895Z,13.10
2019-03-30T14:54:25.765Z,12.50
2019-03-30T14:56:57.790Z,12.30
2019-03-30T14:59:29.938Z,12.20
2019-03-30T15:02:01.879Z,12.10
2019-03-30T15:04:33.807Z,12.30
2019-03-30T15:07:06.318Z,12.20
2019-03-30T15:09:38.377Z,12.30
2019-03-30T15:12:10.279Z,12.40
2019-03-30T15:14:42.588Z,12.40
2019-03-30T15:17:14.609Z,12.40
2019-03-30T15:19:46.793Z,12.50
2019-03-30T15:22:18.865Z,12.50
2019-03-30T15:24:51.384Z,12.40
2019-03-30T15:27:23.252Z,12.40
2019-03-30T15:29:55.226Z,12.30
2019-03-30T15:32:28.088Z,12.50
2019-03-30T15:35:00.289Z,12.40
2019-03-30T15:37:32.900Z,12.30
2019-03-30T15:40:05.246Z,12.30
2019-03-30T15:42:40.094Z,12.20
2019-03-30T15:45:12.543Z,12.20
2019-03-30T15:47:44.445Z,12.10
2019-03-30T15:50:16.750Z,11.90
2019-03-30T15:52:48.557Z,12.00
2019-03-30T15:55:20.876Z,12.10
2019-03-30T15:57:54.371Z,12.20
2019-03-30T16:00:26.850Z,12.20
2019-03-30T16:02:58.792Z,12.20
2019-03-30T16:05:30.822Z,12.20
2019-03-30T16:08:03.310Z,12.00
2019-03-30T16:10:35.269Z,12.00
2019-03-30T16:13:07.882Z,12.00
2019-03-30T16:15:40.574Z,12.00
2019-03-30T16:18:12.755Z,11.80
2019-03-30T16:20:44.744Z,11.90
2019-03-30T16:23:16.932Z,11.80
2019-03-30T16:25:48.967Z,11.60
2019-03-30T16:28:21.380Z,11.50
2019-03-30T16:30:54.219Z,11.40
2019-03-30T16:33:26.403Z,11.40
2019-03-30T16:36:02.410Z,11.40
2019-03-30T16:38:33.541Z,11.40
2019-03-30T16:41:05.585Z,11.50
2019-03-30T16:43:37.729Z,11.50
2019-03-30T16:46:10.081Z,11.40
2019-03-30T16:48:42.599Z,11.30
2019-03-30T16:51:14.910Z,11.10
2019-03-30T16:53:47.397Z,11.10
2019-03-30T16:56:19.598Z,11.20
2019-03-30T16:58:51.577Z,11.20
2019-03-30T17:01:23.557Z,11.20
2019-03-30T17:03:55.562Z,11.30
2019-03-30T17:06:28.251Z,11.20
2019-03-30T17:09:01.440Z,11.20
2019-03-30T17:11:35.111Z,11.10
2019-03-30T17:14:07.140Z,11.10
2019-03-30T17:16:39.166Z,11.10
2019-03-30T17:19:11.209Z,11.00
2019-03-30T17:21:43.142Z,10.90
2019-03-30T17:24:16.068Z,10.70
2019-03-30T17:26:49.209Z,10.70
2019-03-30T17:29:21.709Z,10.60
2019-03-30T17:31:54.603Z,10.60
2019-03-30T17:34:27.753Z,10.60
2019-03-30T17:37:00.117Z,10.70
2019-03-30T17:39:33.047Z,10.60
2019-03-30T17:42:05.026Z,10.60
2019-03-30T17:44:37.129Z,10.50
2019-03-30T17:47:09.415Z,10.50
2019-03-30T17:49:41.433Z,10.50
2019-03-30T17:52:13.718Z,10.50
2019-03-30T17:54:45.772Z,10.30
2019-03-30T17:57:18.389Z,10.30
2019-03-30T17:59:50.433Z,10.30
2019-03-30T18:02:23.751Z,10.30
2019-03-30T18:04:55.691Z,10.20
2019-03-30T18:07:27.823Z,10.30
2019-03-30T18:10:03.299Z,10.30
2019-03-30T18:12:34.477Z,10.40
2019-03-30T18:15:07.265Z,10.10
2019-03-30T18:17:39.716Z,9.80
2019-03-30T18:20:12.630Z,9.70
2019-03-30T18:22:44.709Z,9.70
2019-03-30T18:25:16.826Z,9.80
2019-03-30T18:27:48.744Z,9.80
2019-03-30T18:30:34.054Z,9.90
2019-03-30T18:33:05.984Z,10.10
2019-03-30T18:35:40.475Z,10.00
2019-03-30T18:38:13.069Z,10.10
2019-03-30T18:40:45.696Z,10.20
2019-03-30T18:43:17.637Z,10.10
2019-03-30T18:45:49.655Z,10.20
2019-03-30T18:48:21.609Z,10.20
2019-03-30T18:50:54.104Z,10.20
2019-03-30T18:53:26.447Z,10.20
2019-03-30T18:55:58.784Z,10.20
2019-03-30T18:58:41.030Z,10.20
2019-03-30T19:01:04.128Z,10.10
2019-03-30T19:03:36.169Z,10.00
2019-03-30T19:06:08.062Z,9.80
2019-03-30T19:08:39.986Z,9.70
2019-03-30T19:11:13.016Z,9.70
2019-03-30T19:13:44.990Z,9.70
2019-03-30T19:16:16.929Z,9.80
2019-03-30T19:18:48.783Z,9.70
2019-03-30T19:21:20.719Z,9.70
2019-03-30T19:23:53.238Z,9.70
2019-03-30T19:26:25.335Z,9.70
2019-03-30T19:28:57.211Z,9.80
2019-03-30T19:31:29.151Z,9.90
2019-03-30T19:34:01.028Z,9.90
2019-03-30T19:36:33.014Z,9.90
2019-03-30T19:39:08.816Z,9.90
2019-03-30T19:41:41.030Z,9.80
2019-03-30T19:44:13.320Z,9.80
2019-03-30T19:46:46.213Z,9.90
2019-03-30T19:49:18.895Z,9.90
2019-03-30T19:51:51.173Z,9.90
2019-03-30T19:54:23.263Z,9.80
2019-03-30T19:56:55.902Z,9.80
2019-03-30T19:59:27.834Z,9.80
2019-03-30T20:02:01.329Z,9.80
2019-03-30T20:04:33.370Z,9.90
2019-03-30T20:07:05.286Z,9.90
2019-03-30T20:09:38.167Z,9.90
2019-03-30T20:12:10.250Z,9.70
2019-03-30T20:14:42.958Z,9.80
2019-03-30T20:17:14.803Z,9.80
2019-03-30T20:19:46.819Z,9.70
2019-03-30T20:22:18.785Z,9.80
2019-03-30T20:24:50.743Z,9.90
2019-03-30T20:27:22.664Z,9.90
2019-03-30T20:29:54.646Z,10.00
2019-03-30T20:32:26.520Z,10.00
2019-03-30T20:34:58.677Z,10.00
2019-03-30T20:37:30.830Z,10.00
2019-03-30T20:40:02.801Z,10.00
2019-03-30T20:42:35.116Z,10.10
2019-03-30T20:45:07.449Z,10.00
2019-03-30T20:47:39.432Z,9.90
2019-03-30T20:50:12.040Z,9.90
2019-03-30T20:52:44.764Z,9.90
2019-03-30T20:55:16.727Z,9.80
2019-03-30T20:57:48.778Z,9.80
2019-03-30T21:00:21.099Z,9.80
2019-03-30T21:02:53.837Z,9.80
2019-03-30T21:05:25.820Z,9.80
2019-03-30T21:07:59.086Z,9.80
2019-03-30T21:10:32.239Z,9.70
2019-03-30T21:13:04.856Z,9.70
2019-03-30T21:15:37.519Z,9.60
2019-03-30T21:18:11.087Z,9.50
2019-03-30T21:20:43.036Z,9.60
2019-03-30T21:23:15.199Z,9.60
2019-03-30T21:25:47.186Z,9.50
2019-03-30T21:28:19.308Z,9.50
2019-03-30T21:30:51.292Z,9.50
2019-03-30T21:33:23.179Z,9.40
2019-03-30T21:35:55.091Z,9.40
2019-03-30T21:38:26.995Z,9.40
2019-03-30T21:40:58.987Z,9.40
2019-03-30T21:43:32.358Z,9.30
2019-03-30T21:46:05.486Z,9.40
2019-03-30T21:48:40.593Z,9.40
2019-03-30T21:51:13.263Z,9.50
2019-03-30T21:53:46.546Z,9.30
2019-03-30T21:56:18.444Z,9.30
2019-03-30T21:58:50.463Z,9.40
2019-03-30T22:01:22.559Z,9.30
2019-03-30T22:03:54.881Z,9.30
2019-03-30T22:06:26.996Z,9.50
2019-03-30T22:08:59.915Z,9.40
2019-03-30T22:11:31.790Z,9.30
2019-03-30T22:14:03.980Z,9.40
2019-03-30T22:16:35.975Z,9.50
2019-03-30T22:19:08.018Z,9.60
2019-03-30T22:21:40.072Z,9.50
2019-03-30T22:24:12.104Z,9.50
2019-03-30T22:26:44.134Z,9.70
2019-03-30T22:29:16.396Z,9.80
2019-03-30T22:31:48.445Z,9.80
2019-03-30T22:34:20.666Z,9.90
2019-03-30T22:36:52.519Z,9.90
2019-03-30T22:39:24.661Z,10.00
2019-03-30T22:41:56.900Z,10.00
2019-03-30T22:44:28.935Z,10.10
2019-03-30T22:47:00.809Z,10.10
2019-03-30T22:49:32.971Z,10.10
2019-03-30T22:52:04.820Z,10.00
2019-03-30T22:54:36.732Z,10.00
2019-03-30T22:57:09.199Z,9.90
2019-03-30T22:59:41.091Z,9.80
2019-03-30T23:02:13.961Z,9.70
2019-03-30T23:04:46.879Z,9.60
2019-03-30T23:07:19.726Z,9.60
2019-03-30T23:09:52.173Z,9.70
2019-03-30T23:12:25.329Z,9.60
2019-03-30T23:15:00.052Z,9.60
2019-03-30T23:17:31.863Z,9.60
2019-03-30T23:20:04.332Z,9.70
2019-03-30T23:22:39.072Z,9.70
2019-03-30T23:25:11.195Z,9.80
2019-03-30T23:27:46.152Z,9.80
2019-03-30T23:30:19.319Z,9.80
2019-03-30T23:32:52.955Z,9.70
2019-03-30T23:35:25.964Z,9.70
2019-03-30T23:37:58.398Z,9.80
2019-03-30T23:40:31.701Z,9.70
2019-03-30T23:43:03.717Z,9.70
2019-03-30T23:45:35.608Z,9.80
2019-03-30T23:48:07.606Z,9.70
2019-03-30T23:50:39.800Z,9.80
2019-03-30T23:53:12.407Z,9.70
2019-03-30T23:55:44.642Z,9.60
2019-03-30T23:58:17.174Z,9.60
